Latest Weather Observations for East Sale Airport

IDV60801

Issued at 5:42 am EST Thursday 25 April 2024 (issued every 10 minutes, with the page automatically refreshed every 10 minutes)

About weather observations | Map of weather stations | Latest weather observations for VIC | Other Formats
Station Details ID: 085314 Name: EAST SALE AIRPORT Lat: -38.10 Lon: 147.14 Height: 5.3 m
Data from the previous 72 hours. | See also: Recent months at East Sale Airport
Date/Time
EST
Temp
°C
App
Temp
°C
Dew
Point
°C
Rel
Hum
%
Delta-T
°C
Wind Press
QNH
hPa
Press
MSL
hPa
Rain since
9am
mm
Dir  Spd
km/h
Gust
km/h
Spd
kts
Gust
kts
25/05:30am 11.5 7.7 9.1 85 1.2 W 19 26 10 14 1020.9 1020.9 0.0
25/05:00am 11.7 8.1 8.4 80 1.6 W 17 30 9 16 1020.7 1020.7 0.0
25/04:30am 11.7 7.6 8.0 78 1.8 WNW 19 28 10 15 1020.5 1020.5 0.0
25/04:00am 11.4 8.0 7.7 78 1.8 WNW 15 22 8 12 1020.5 1020.5 0.0
25/03:30am 11.2 7.4 7.5 78 1.8 WNW 17 30 9 16 1020.3 1020.3 0.0
25/03:00am 10.0 6.9 7.1 82 1.4 WNW 13 19 7 10 1020.5 1020.5 0.0
25/02:30am 10.3 6.1 7.4 82 1.4 WNW 19 24 10 13 1020.7 1020.7 0.0
25/02:00am 9.7 6.2 7.1 84 1.2 WNW 15 19 8 10 1021.0 1021.0 0.0
25/01:30am 9.0 5.5 7.0 87 0.9 NW 15 19 8 10 1021.1 1021.1 0.0
25/01:00am 9.6 5.8 7.4 86 1.0 WNW 17 20 9 11 1021.6 1021.6 0.0
25/12:30am 9.5 6.0 7.4 87 1.0 WNW 15 20 8 11 1021.9 1021.9 0.0
25/12:00am 9.5 5.6 7.3 86 1.0 WNW 17 22 9 12 1021.8 1021.8 0.0
 
Date/Time
EST
Temp
°C
App
Temp
°C
Dew
Point
°C
Rel
Hum
%
Delta-T
°C
Wind Press
QNH
hPa
Press
MSL
hPa
Rain since
9am
mm
Dir  Spd
km/h
Gust
km/h
Spd
kts
Gust
kts
24/11:30pm 9.8 6.3 7.4 85 1.1 WNW 15 20 8 11 1022.2 1022.2 0.0
24/11:00pm 9.7 7.0 7.5 86 1.0 WNW 11 17 6 9 1022.5 1022.5 0.0
24/10:30pm 9.5 6.7 7.1 85 1.1 WNW 11 15 6 8 1022.7 1022.7 0.0
24/10:00pm 10.7 6.9 7.6 81 1.5 NW 17 20 9 11 1022.8 1022.8 0.0
24/09:30pm 11.5 7.2 7.8 78 1.8 WNW 20 30 11 16 1022.9 1022.9 0.0
24/09:00pm 11.6 8.2 7.7 77 1.9 NW 15 20 8 11 1022.7 1022.7 0.0
24/08:30pm 12.0 7.7 7.7 75 2.1 WNW 20 37 11 20 1022.6 1022.6 0.0
24/08:00pm 12.4 9.2 8.3 76 2.0 WNW 15 28 8 15 1022.5 1022.5 0.0
24/07:30pm 12.4 9.1 8.1 75 2.1 WNW 15 19 8 10 1022.2 1022.2 0.0
24/07:00pm 12.8 9.3 7.3 69 2.7 W 15 20 8 11 1022.0 1022.0 0.0
24/06:30pm 12.9 9.5 7.6 70 2.6 WNW 15 24 8 13 1021.8 1021.8 0.0
24/06:00pm 13.2 8.0 7.2 67 2.9 W 24 32 13 17 1021.5 1021.5 0.0
24/05:30pm 13.0 9.1 7.2 68 2.8 W 17 26 9 14 1021.2 1021.2 0.0
24/05:00pm 13.6 9.6 6.7 63 3.3 W 17 26 9 14 1020.9 1020.9 0.0
24/04:30pm 14.7 9.5 7.3 61 3.6 W 24 35 13 19 1020.6 1020.6 0.0
24/04:08pm 14.7 8.5 6.0 56 4.2 W 28 46 15 25 1020.5 1020.5 0.0
24/04:00pm 14.8 9.4 6.4 57 4.0 W 24 39 13 21 1020.5 1020.5 0.0
24/03:30pm 15.5 9.5 7.0 57 4.2 W 28 37 15 20 1020.3 1020.3 0.0
24/03:00pm 15.9 9.4 6.3 53 4.6 WSW 30 44 16 24 1020.3 1020.3 0.0
24/02:30pm 14.9 7.8 5.7 54 4.4 WSW 32 50 17 27 1020.3 1020.3 0.0
24/02:00pm 15.4 9.2 7.7 60 3.8 W 30 41 16 22 1020.0 1020.0 0.0
24/01:30pm 16.0 9.2 6.7 54 4.6 W 32 43 17 23 1019.8 1019.8 0.0
24/01:00pm 16.0 11.0 8.0 59 4.0 W 24 32 13 17 1020.0 1020.0 0.0
24/12:30pm 13.7 9.0 7.7 67 3.0 WSW 22 30 12 16 1020.4 1020.4 0.0
24/12:00pm 15.6 9.9 6.9 56 4.3 WSW 26 35 14 19 1020.3 1020.3 0.0
24/11:30am 14.5 11.1 9.1 70 2.8 WSW 17 30 9 16 1020.4 1020.4 0.0
24/11:00am 15.9 10.8 7.7 58 4.1 W 24 32 13 17 1020.1 1020.1 0.0
24/10:30am 14.9 10.0 8.6 66 3.2 W 24 33 13 18 1020.1 1020.1 0.0
24/10:00am 14.3 9.2 9.3 72 2.5 W 26 35 14 19 1020.0 1020.0 0.0
24/09:30am 13.2 7.3 8.9 75 2.2 W 30 43 16 23 1019.9 1019.9 0.0
24/09:00am 12.9 7.0 9.2 78 1.9 W 30 46 16 25 1019.6 1019.6 2.2
24/08:30am 12.6 7.1 9.1 79 1.8 W 28 43 15 23 1019.1 1019.1 2.2
24/08:00am 11.9 6.8 9.1 83 1.4 W 26 37 14 20 1018.4 1018.4 2.2
24/07:30am 11.2 5.7 9.1 87 1.0 WNW 28 39 15 21 1017.6 1017.6 2.2
24/07:00am 11.3 4.9 8.7 84 1.3 W 32 48 17 26 1016.9 1016.9 2.2
24/06:30am 11.7 4.6 8.2 79 1.7 W 35 57 19 31 1015.9 1015.9 2.2
24/06:29am 11.8 5.1 8.1 78 1.8 W 33 57 18 31 1015.8 1015.8 2.2
24/06:00am 11.5 5.2 7.6 77 1.9 WNW 30 44 16 24 1015.5 1015.5 2.2
24/05:30am 11.9 5.3 7.8 76 2.0 WNW 32 44 17 24 1015.0 1015.0 2.2
24/05:21am 12.0 6.2 7.9 76 2.0 WNW 28 46 15 25 1014.9 1014.9 2.2
24/05:00am 11.8 5.7 8.1 78 1.8 W 30 41 16 22 1015.2 1015.2 2.2
24/04:41am 11.8 5.8 8.6 81 1.6 W 30 48 16 26 1014.1 1014.1 2.2
24/04:30am 11.7 6.6 9.3 85 1.2 W 26 37 14 20 1014.1 1014.1 2.2
24/04:00am 11.3 6.0 9.9 91 0.7 W 28 37 15 20 1013.7 1013.7 2.2
24/03:30am 11.5 6.8 10.6 94 0.5 W 26 41 14 22 1013.3 1013.3 2.2
24/03:00am 12.1 6.4 11.2 94 0.5 W 32 50 17 27 1013.4 1013.4 1.0
24/02:30am 12.6 6.0 11.3 92 0.7 W 37 56 20 30 1012.9 1012.9 0.4
24/02:21am 12.8 6.2 11.4 91 0.7 W 37 59 20 32 1012.9 1012.9 0.4
24/02:18am 12.9 5.6 11.5 91 0.7 W 41 67 22 36 1012.8 1012.8 0.2
24/02:03am 13.9 4.6 11.9 88 1.1 W 52 74 28 40 1012.1 1012.1 0.0
24/02:00am 14.3 5.8 12.0 86 1.2 W 48 74 26 40 1012.1 1012.1 0.0
24/01:30am 16.6 10.0 11.5 72 2.8 WSW 37 56 20 30 1010.8 1010.8 0.0
24/01:28am 16.7 10.6 11.6 72 2.8 WSW 35 56 19 30 1010.8 1010.8 0.0
24/01:00am 17.0 11.1 11.1 68 3.2 W 33 44 18 24 1010.6 1010.6 0.0
24/12:30am 18.7 13.5 8.9 53 5.1 W 26 35 14 19 1010.4 1010.4 0.0
24/12:06am 17.3 14.8 9.7 61 4.0 N 13 46 7 25 1010.3 1010.3 0.0
24/12:00am 17.3 15.6 9.7 61 4.0 NNE 9 15 5 8 1009.1 1009.1 0.0
 
Date/Time
EST
Temp
°C
App
Temp
°C
Dew
Point
°C
Rel
Hum
%
Delta-T
°C
Wind Press
QNH
hPa
Press
MSL
hPa
Rain since
9am
mm
Dir  Spd
km/h
Gust
km/h
Spd
kts
Gust
kts
23/11:30pm 17.7 14.3 9.3 58 4.4 NE 17 20 9 11 1009.3 1009.3 0.0
23/11:00pm 18.5 15.1 9.3 55 4.8 NNE 17 24 9 13 1009.9 1009.9 0.0
23/10:30pm 18.6 15.0 9.7 56 4.7 NNE 19 26 10 14 1010.5 1010.5 0.0
23/10:00pm 17.8 14.7 8.9 56 4.6 NNE 15 20 8 11 1011.5 1011.5 0.0
23/09:30pm 17.6 14.2 9.0 57 4.5 NNE 17 22 9 12 1012.2 1012.2 0.0
23/09:00pm 14.9 13.9 10.9 77 2.1 NE 7 11 4 6 1012.8 1012.8 0.0
23/08:30pm 14.1 13.6 12.0 87 1.1 ESE 6 9 3 5 1013.3 1013.3 0.0
23/08:00pm 15.4 14.8 11.6 78 2.0 NNE 6 11 3 6 1013.5 1013.5 0.0
23/07:30pm 15.4 15.2 12.9 85 1.4 ENE 6 7 3 4 1014.0 1014.0 0.0
23/07:00pm 15.8 15.4 12.9 83 1.6 ESE 7 9 4 5 1014.4 1014.4 0.0
23/06:30pm 16.3 15.9 12.5 78 2.1 E 6 9 3 5 1014.5 1014.5 0.0
23/06:00pm 17.5 16.0 10.4 63 3.8 ENE 9 11 5 6 1014.6 1014.6 0.0
23/05:30pm 18.1 16.5 10.2 60 4.2 ENE 9 13 5 7 1014.5 1014.5 0.0
23/05:00pm 18.9 18.0 11.2 61 4.2 ENE 7 9 4 5 1014.7 1014.7 0.0
23/04:30pm 19.9 17.7 10.9 56 4.9 ENE 13 17 7 9 1014.7 1014.7 0.0
23/04:00pm 22.2 19.1 11.6 51 5.9 E 19 22 10 12 1014.8 1014.8 0.0
23/03:30pm 23.6 20.1 7.3 35 8.5 ENE 15 20 8 11 1015.1 1015.1 0.0
23/03:00pm 24.0 22.2 8.0 36 8.5 E 7 11 4 6 1015.5 1015.5 0.0
23/02:30pm 24.0 22.0 7.2 34 8.8 ENE 7 11 4 6 1015.9 1015.9 0.0
23/02:00pm 23.6 21.3 7.3 35 8.5 ESE 9 13 5 7 1016.2 1016.2 0.0
23/01:30pm 23.3 21.3 7.0 35 8.4 E 7 11 4 6 1016.7 1016.7 0.0
23/01:00pm 22.6 20.9 9.7 44 7.0 ESE 9 11 5 6 1017.2 1017.2 0.0
23/12:30pm 21.0 20.2 11.6 55 5.2 SE 7 11 4 6 1017.9 1017.9 0.0
23/12:00pm 19.7 19.5 13.6 68 3.5 SSE 7 11 4 6 1018.7 1018.7 0.0
23/11:30am 18.6 18.3 12.8 69 3.3 SE 6 9 3 5 1019.4 1019.4 0.0
23/11:00am 18.8 18.8 12.3 66 3.6 ENE 4 7 2 4 1020.0 1020.0 0.0
23/10:30am 15.1 15.5 12.6 85 1.4 W 2 6 1 3 1020.3 1020.3 0.0
23/10:00am 12.3 11.9 12.3 100 0.0 S 6 9 3 5 1020.8 1020.8 0.0
23/09:30am 11.2 10.8 11.2 100 0.0 WSW 4 9 2 5 1021.2 1021.2 0.0
23/09:00am 9.6 8.4 9.6 100 0.0 NW 6 9 3 5 1021.6 1021.6 0.0
23/08:30am 8.8 7.4 8.8 100 0.0 W 6 11 3 6 1021.6 1021.6 0.0
23/08:00am 7.2 5.8 7.2 100 0.0 WNW 4 7 2 4 1021.5 1021.5 0.0
23/07:57am 7.0 5.5 7.0 100 0.0 WNW 4 7 2 4 1021.5 1021.5 0.0
23/07:53am 6.7 5.2 6.7 100 0.0 WNW 4 7 2 4 1021.5 1021.5 0.0
23/07:30am 4.4 3.2 4.4 100 0.0 CALM 0 0 0 0 1021.4 1021.4 0.0
23/07:01am 3.3 0.7 3.3 100 0.0 S 6 7 3 4 1021.4 1021.4 0.0
23/07:00am 3.2 0.6 3.2 100 0.0 S 6 7 3 4 1021.4 1021.4 0.0
23/06:59am 3.3 0.7 3.3 100 0.0 SSW 6 7 3 4 1021.4 1021.4 0.0
23/06:49am 3.2 0.6 3.2 100 0.0 W 6 11 3 6 1021.3 1021.3 0.0
23/06:45am 3.6 1.4 3.6 100 0.0 WNW 4 7 2 4 1021.3 1021.3 0.0
23/06:35am 4.8 3.3 4.8 100 0.0 SW 2 7 1 4 1021.3 1021.3 0.0
23/06:30am 4.2 2.9 4.2 100 0.0 CALM 0 0 0 0 1021.3 1021.3 0.0
23/06:22am 4.4 3.2 4.4 100 0.0 CALM 0 0 0 0 1021.3 1021.3 0.0
23/06:20am 4.3 3.0 4.3 100 0.0 CALM 0 0 0 0 1021.3 1021.3 0.0
23/06:00am 3.9 1.8 3.9 100 0.0 SSW 4 7 2 4 1021.3 1021.3 0.0
23/05:59am 4.0 1.5 4.0 100 0.0 SSW 6 7 3 4 1021.3 1021.3 0.0
23/05:52am 4.2 1.6 4.2 100 0.0 SSW 7 11 4 6 1021.3 1021.3 0.0
23/05:30am 5.0 3.9 5.0 100 0.0 CALM 0 0 0 0 1021.2 1021.2 0.0
23/05:27am 5.0 3.9 5.0 100 0.0 CALM 0 0 0 0 1021.2 1021.2 0.0
23/05:07am 6.2 4.2 6.2 100 0.0 WNW 6 9 3 5 1021.3 1021.3 0.0
23/05:00am 6.3 4.3 6.3 100 0.0 WNW 6 9 3 5 1021.4 1021.4 0.0
23/04:53am 6.1 3.9 6.1 100 0.0 WNW 7 11 4 6 1021.4 1021.4 0.0
23/04:43am 5.4 3.0 5.4 100 0.0 WNW 7 9 4 5 1021.2 1021.2 0.0
23/04:30am 5.7 3.0 5.7 100 0.0 NW 9 11 5 6 1021.3 1021.3 0.0
23/04:16am 6.3 4.1 6.3 100 0.0 WNW 7 13 4 7 1021.2 1021.2 0.0
23/04:00am 6.2 3.2 6.2 100 0.0 NW 11 13 6 7 1021.2 1021.2 0.0
23/03:51am 6.4 3.9 6.4 100 0.0 NW 9 11 5 6 1021.2 1021.2 0.0
23/03:38am 6.4 4.2 6.4 100 0.0 NW 7 9 4 5 1021.2 1021.2 0.0
23/03:36am 6.2 4.0 6.2 100 0.0 NW 7 9 4 5 1021.2 1021.2 0.0
23/03:34am 6.2 4.0 6.2 100 0.0 NW 7 9 4 5 1021.1 1021.1 0.0
23/03:33am 6.2 4.0 6.2 100 0.0 NW 7 9 4 5 1021.1 1021.1 0.0
23/03:30am 6.4 4.2 6.4 100 0.0 NW 7 9 4 5 1021.2 1021.2 0.0
23/03:17am 7.1 5.1 7.1 100 0.0 WNW 7 9 4 5 1021.3 1021.3 0.0
23/03:00am 7.2 4.8 7.2 100 0.0 NW 9 13 5 7 1021.4 1021.4 0.0
23/02:40am 7.5 5.2 7.5 100 0.0 NW 9 13 5 7 1021.4 1021.4 0.0
23/02:30am 7.6 5.3 7.6 100 0.0 NW 9 13 5 7 1021.5 1021.5 0.0
23/02:06am 7.0 4.6 7.0 100 0.0 NW 9 11 5 6 1021.7 1021.7 0.0
23/02:00am 7.4 5.1 7.4 100 0.0 NW 9 11 5 6 1021.7 1021.7 0.0
23/01:54am 7.0 5.0 6.9 99 0.0 WNW 7 9 4 5 1021.8 1021.8 0.0
23/01:30am 7.9 6.1 7.9 100 0.0 WNW 7 9 4 5 1022.0 1022.0 0.0
23/01:07am 7.0 5.0 6.9 99 0.0 NW 7 9 4 5 1022.1 1022.1 0.0
23/01:00am 7.7 5.8 7.6 99 0.0 NW 7 7 4 4 1022.2 1022.2 0.0
23/12:31am 8.1 6.9 8.0 99 0.0 SW 4 6 2 3 1022.3 1022.3 0.0
23/12:30am 7.6 6.3 7.5 99 0.0 SW 4 6 2 3 1022.3 1022.3 0.0
23/12:13am 7.1 5.1 7.0 99 0.0 WSW 7 7 4 4 1022.4 1022.4 0.0
23/12:11am 7.2 5.2 7.1 99 0.0 WSW 7 7 4 4 1022.4 1022.4 0.0
23/12:05am 7.1 5.6 6.8 98 0.1 W 4 7 2 4 1022.4 1022.4 0.0
23/12:00am 7.2 6.5 7.1 99 0.0 CALM 0 7 0 4 1022.5 1022.5 0.0
 
Date/Time
EST
Temp
°C
App
Temp
°C
Dew
Point
°C
Rel
Hum
%
Delta-T
°C
Wind Press
QNH
hPa
Press
MSL
hPa
Rain since
9am
mm
Dir  Spd
km/h
Gust
km/h
Spd
kts
Gust
kts
22/11:52pm 7.6 7.0 7.3 98 0.1 CALM 0 0 0 0 1022.5 1022.5 0.0
22/11:50pm 7.5 6.9 7.2 98 0.1 CALM 0 0 0 0 1022.5 1022.5 0.0
22/11:47pm 7.7 7.1 7.4 98 0.1 CALM 0 0 0 0 1022.4 1022.4 0.0
22/11:44pm 7.7 7.1 7.4 98 0.1 CALM 0 0 0 0 1022.4 1022.4 0.0
22/11:39pm 7.8 7.2 7.5 98 0.1 CALM 0 0 0 0 1022.4 1022.4 0.0
22/11:36pm 7.9 7.0 7.8 99 0.0 W 2 6 1 3 1022.4 1022.4 0.0
22/11:30pm 8.5 7.4 8.4 99 0.0 W 4 7 2 4 1022.4 1022.4 0.0
22/11:21pm 8.5 7.0 8.4 99 0.0 W 6 7 3 4 1022.4 1022.4 0.0
22/11:11pm 8.7 8.0 8.4 98 0.1 W 2 6 1 3 1022.5 1022.5 0.0
22/11:00pm 8.2 6.6 7.9 98 0.1 W 6 7 3 4 1022.6 1022.6 0.0
22/10:48pm 8.5 8.1 8.2 98 0.1 CALM 0 0 0 0 1022.7 1022.7 0.0
22/10:47pm 8.4 8.0 8.1 98 0.1 CALM 0 0 0 0 1022.8 1022.8 0.0
22/10:42pm 8.4 8.0 8.1 98 0.1 CALM 0 0 0 0 1022.8 1022.8 0.0
22/10:33pm 8.3 7.8 8.0 98 0.1 CALM 0 0 0 0 1023.0 1023.0 0.0
22/10:32pm 8.3 7.8 8.0 98 0.1 CALM 0 0 0 0 1023.0 1023.0 0.0
22/10:30pm 8.5 8.1 8.2 98 0.1 CALM 0 0 0 0 1023.0 1023.0 0.0
22/10:22pm 8.6 8.2 8.3 98 0.1 CALM 0 0 0 0 1023.1 1023.1 0.0
22/10:15pm 9.3 9.1 9.0 98 0.1 CALM 0 0 0 0 1023.1 1023.1 0.0
22/10:12pm 9.6 9.5 9.3 98 0.1 CALM 0 6 0 3 1023.1 1023.1 0.0
22/10:05pm 10.0 9.2 9.7 98 0.2 NW 4 7 2 4 1023.1 1023.1 0.0
22/10:00pm 10.1 9.0 9.8 98 0.1 NW 6 7 3 4 1023.2 1023.2 0.0
22/09:50pm 10.4 9.3 10.1 98 0.2 NW 6 7 3 4 1023.4 1023.4 0.0
22/09:46pm 9.2 8.6 8.9 98 0.1 NW 2 7 1 4 1023.4 1023.4 0.0
22/09:44pm 9.2 9.0 8.9 98 0.1 CALM 0 7 0 4 1023.5 1023.5 0.0
22/09:38pm 8.8 8.4 8.4 97 0.2 CALM 0 0 0 0 1023.5 1023.5 0.0
22/09:30pm 8.9 8.6 8.5 97 0.2 CALM 0 0 0 0 1023.6 1023.6 0.0
22/09:24pm 8.9 8.6 8.5 97 0.2 CALM 0 6 0 3 1023.5 1023.5 0.0
22/09:12pm 10.7 9.7 10.4 98 0.2 NW 6 7 3 4 1023.5 1023.5 0.0
22/09:00pm 10.8 9.7 10.5 98 0.2 NNW 7 7 4 4 1023.6 1023.6 0.0
22/08:50pm 11.1 10.2 10.6 97 0.3 NNE 6 7 3 4 1023.6 1023.6 0.0
22/08:30pm 11.2 11.4 10.7 97 0.3 CALM 0 0 0 0 1023.6 1023.6 0.0
22/08:00pm 12.0 11.1 11.4 96 0.3 ENE 7 9 4 5 1023.7 1023.7 0.0
22/07:30pm 12.7 12.2 11.9 95 0.4 E 6 7 3 4 1023.8 1023.8 0.0
22/07:00pm 12.2 10.9 10.1 87 1.1 E 7 7 4 4 1023.9 1023.9 0.0
22/06:30pm 12.3 10.8 8.6 78 1.8 ESE 6 7 3 4 1023.8 1023.8 0.0
22/06:00pm 15.1 13.9 10.3 73 2.5 ENE 7 7 4 4 1023.4 1023.4 0.0
22/05:30pm 16.7 15.5 9.6 63 3.7 NNW 6 7 3 4 1023.3 1023.3 0.0
22/05:00pm 18.9 17.7 9.4 54 5.0 NW 6 7 3 4 1023.3 1023.3 0.0
22/04:30pm 19.6 18.3 9.8 53 5.2 NNW 7 9 4 5 1023.3 1023.3 0.0
22/04:00pm 19.6 18.0 8.9 50 5.6 NNW 7 11 4 6 1023.5 1023.5 0.0
22/03:30pm 20.0 18.2 9.6 51 5.5 NNW 9 13 5 7 1023.7 1023.7 0.0
22/03:00pm 20.6 19.0 8.9 47 6.1 NW 7 11 4 6 1023.9 1023.9 0.0
22/02:30pm 20.1 18.6 9.1 49 5.8 N 7 11 4 6 1024.0 1024.0 0.0
22/02:00pm 19.8 18.7 10.0 53 5.2 NNW 6 11 3 6 1024.2 1024.2 0.0
22/01:30pm 19.7 18.9 11.2 58 4.7 NW 6 9 3 5 1024.7 1024.7 0.0
22/01:00pm 18.8 18.0 11.1 61 4.2 NNW 6 11 3 6 1025.2 1025.2 0.0
22/12:30pm 17.7 16.5 10.3 62 3.9 N 7 13 4 7 1025.8 1025.8 0.0
22/12:00pm 17.0 15.9 10.8 67 3.3 NNW 7 11 4 6 1026.4 1026.4 0.0
22/11:30am 16.5 15.4 10.6 68 3.1 NNE 7 11 4 6 1026.9 1026.9 0.0
22/11:00am 16.1 15.2 10.8 71 2.8 NE 6 11 3 6 1027.2 1027.2 0.0
22/10:30am 15.0 13.8 10.2 73 2.5 NNW 7 11 4 6 1027.5 1027.5 0.0
22/10:00am 14.3 13.1 10.3 77 2.1 NW 7 9 4 5 1027.9 1027.9 0.0
22/09:30am 12.7 10.8 10.4 86 1.2 NW 11 15 6 8 1028.1 1028.1 0.0
22/09:00am 11.2 9.7 10.7 97 0.3 WNW 9 11 5 6 1028.5 1028.5 0.2
22/08:30am 9.8 8.7 9.8 100 0.0 W 6 9 3 5 1028.5 1028.5 0.2
22/08:00am 9.0 7.4 8.9 99 0.0 WNW 7 11 4 6 1028.4 1028.4 0.2
22/07:37am 8.4 6.3 8.3 99 0.0 WNW 9 11 5 6 1028.2 1028.2 0.2
22/07:30am 8.1 5.9 8.0 99 0.0 WNW 9 11 5 6 1028.2 1028.2 0.2
22/07:00am 6.3 3.7 6.0 98 0.1 NNW 9 11 5 6 1027.9 1027.9 0.2
22/06:46am 6.2 3.2 5.8 97 0.2 NNW 11 11 6 6 1027.8 1027.8 0.2
22/06:36am 5.6 3.3 5.0 96 0.3 NW 6 13 3 7 1027.8 1027.8 0.2
22/06:30am 7.7 7.1 7.3 97 0.2 CALM 0 0 0 0 1027.7 1027.7 0.2
22/06:00am 7.6 6.5 7.0 96 0.3 SW 2 6 1 3 1027.6 1027.6 0.2

Other formats

Comma delimited format used in spreadsheet applications
http://www.bom.gov.au/fwo/IDV60801/IDV60801.95907.axf

JavaScript Object Notation format (JSON) in row-major order
http://www.bom.gov.au/fwo/IDV60801/IDV60801.95907.json

Data quality

Most of these data are generated automatically and are frequently updated. Quality checks on data are not normally performed. It is possible for incorrect values to appear. Refer to information at About Latest Weather Observations and please check the disclaimer before using these data.